Gregory, South Dakota
Current Conditions -  °F | °C
As of 3:53 AM on Thursday 29 Jan 2015 (Local Time) from KICR Reporting Station
Overcast Overcast  
Wind Chill: 24°   Ceiling: 2800
Heat Index: 36°   Visibility: 10mi
Dew Point: 26°   Wind: 23mph
Humidity: 67%   Direction: 320°NW
Pressure: 30.31"   Gusts: 29mph
Location:  43.23°N, 99.43°W
Report Text: KICR 290953Z AUTO 32020G25KT 10SM OVC028 02/M03 A3031 RMK AO2 PK WND 32027/0931 SLP272 T00221033
Loading
Personal Weather Stations






























Interactive Weather Map New forecast layout! Learn more

10-Day Weather Forecast

Advertisements
Track Severe Weather on mobile